Charter Quote
Worldwide +1-877-727-2538 Call
Select Language Lang
SAFETY RELIABILITY EXPERIENCE

Lake County Airport (KLXV) - Jet Charter Services

AIRPORT INFORMATION
ICAOKLXV
IATALXV
LOCATIONLeadville, CO, United States
FACILITY TYPEAIRPORT

At Paramount Business Jets you can hire chartered private jets to and from Lake County Airport with as little as 4 hours of notice. All flights booked via Paramount Business Jets are operated by certified direct air carriers that meet and exceed the FAA part 135 and 121 protocol or a foreign equivalent safety authority. Furthermore, Paramount Business Jets subscribes to ARGUS for their third party safety checks of operators, aircraft, and crews prior each and every flight to and from Lake County Airport and worldwide.

  • Quote a trip using Lake County Airport or call us 24/7 - 365 days a year at +1-877-727-2538.
Questions? Call +1-877-727-2538

METAR Weather Data at Lake County Airport, KLXV, LXV

STATIONKLXV
OBSERVEDSun Mar 24, 05:53 UTC
NOWSun Mar 24, 06:43 UTC
AGE50 min ago
WINDENE at 7 mph
VISIBILITY10 miles
CLOUDSovercast
TEMP21°F (-6°C)
WIND CHILL12°F (-11°C)
DEWPT12°F (-11°C)
HUMIDITY68%
BAROMETER1020 hPa (30.12 in Hg)
METARKLXV 240553Z AUTO 06006KT 10SM OVC049 M06/M11 A3012 RMK AO2 SLP163 60000 T10611106 11006 21067 58001

Call us on +1-877-727-2538 (24 Hours) to Hire a Private Jet or Get a Quick Quote.

Find Airports Near any Location

Processing
...